Station Historical Data
Daily Summary for July 30, 2017 Units:  English    Metric   Both
« Previous Day
Next Day »
Daily Weekly Monthly Yearly Custom
  High: Low: Average:
Temperature: 85.9 °F 60.3 °F 73 °F
Dew Point: 68.0 °F 57.0 °F 62.5 °F
Humidity: 90% 42% 71%
Wind Speed: 9.0mph 0.0mph 1.9mph
Wind Gust: 11.0mph - -
Wind- - WSW
Pressure: 30.09 in 30.00 in -
Precipitation: 0.00 in    
Historical Graphs
 
 
Tabular Data for July 30, 2017
Time Temperature Dew Point Pressure Wind Wind Speed Wind Gust Humidity Rainfall Rate (Hourly)
00:04 68.9 °F 59.5 °F 30.00 in NNW 2.0 mph 3.0 mph 72% 0.00 in
00:09 68.8 °F 59.4 °F 30.00 in Calm   3.0 mph 72% 0.00 in
00:14 68.7 °F 59.3 °F 30.00 in Calm   3.0 mph 72% 0.00 in
00:19 68.5 °F 59.1 °F 30.00 in Calm   3.0 mph 72% 0.00 in
00:24 68.4 °F 59.0 °F 30.00 in Calm   1.0 mph 72% 0.00 in
00:29 68.2 °F 59.2 °F 30.00 in Calm     73% 0.00 in
00:34 68.0 °F 59.0 °F 30.00 in Calm     73% 0.00 in
00:39 67.9 °F 59.3 °F 30.00 in Calm     74% 0.00 in
00:44 67.6 °F 59.0 °F 30.00 in Calm     74% 0.00 in
00:49 67.3 °F 59.1 °F 30.00 in Calm     75% 0.00 in
00:54 66.9 °F 58.7 °F 30.00 in Calm     75% 0.00 in
00:59 66.5 °F 58.7 °F 30.00 in Calm     76% 0.00 in
01:05 66.1 °F 58.3 °F 30.00 in Calm     76% 0.00 in
01:10 65.8 °F 58.4 °F 30.00 in Calm     77% 0.00 in
01:15 65.5 °F 58.1 °F 30.00 in Calm     77% 0.00 in
01:20 65.4 °F 58.0 °F 30.00 in Calm     77% 0.00 in
01:25 65.1 °F 58.1 °F 30.00 in Calm     78% 0.00 in
01:30 64.9 °F 57.9 °F 30.00 in Calm     78% 0.00 in
01:35 64.7 °F 57.7 °F 30.00 in Calm     78% 0.00 in
01:40 64.4 °F 57.7 °F 30.00 in Calm     79% 0.00 in
01:45 64.3 °F 58.0 °F 30.00 in Calm     80% 0.00 in
01:50 64.2 °F 57.9 °F 30.00 in Calm     80% 0.00 in
01:55 64.1 °F 57.8 °F 30.00 in Calm     80% 0.00 in
02:00 63.9 °F 58.0 °F 30.00 in Calm     81% 0.00 in
02:05 63.8 °F 57.9 °F 30.00 in Calm     81% 0.00 in
02:10 63.6 °F 57.7 °F 30.00 in Calm     81% 0.00 in
02:15 63.7 °F 57.8 °F 30.00 in Calm     81% 0.00 in
02:20 63.9 °F 58.3 °F 30.00 in Calm     82% 0.00 in
02:25 63.9 °F 58.3 °F 30.00 in Calm     82% 0.00 in
02:30 63.7 °F 57.8 °F 30.00 in Calm     81% 0.00 in
02:35 63.5 °F 57.9 °F 30.00 in Calm     82% 0.00 in
02:40 63.3 °F 58.0 °F 30.00 in Calm     83% 0.00 in
02:45 63.0 °F 57.8 °F 30.00 in Calm     83% 0.00 in
02:50 62.9 °F 58.0 °F 30.00 in Calm     84% 0.00 in
02:55 62.7 °F 57.8 °F 30.00 in Calm     84% 0.00 in
03:00 62.6 °F 57.7 °F 30.00 in Calm     84% 0.00 in
03:05 62.5 °F 57.6 °F 30.00 in Calm     84% 0.00 in
03:15 62.3 °F 57.7 °F 30.00 in Calm     85% 0.00 in
03:20 62.3 °F 57.7 °F 30.00 in Calm     85% 0.00 in
03:25 62.3 °F 57.7 °F 30.00 in Calm     85% 0.00 in
03:30 62.3 °F 57.7 °F 30.00 in Calm     85% 0.00 in
03:35 62.1 °F 57.5 °F 30.00 in Calm     85% 0.00 in
03:40 62.0 °F 57.4 °F 30.00 in Calm     85% 0.00 in
03:45 61.9 °F 57.7 °F 30.00 in Calm     86% 0.00 in
03:50 61.8 °F 57.6 °F 30.00 in Calm     86% 0.00 in
03:55 61.7 °F 57.5 °F 30.00 in Calm     86% 0.00 in
04:05 61.6 °F 57.4 °F 30.00 in Calm     86% 0.00 in
04:10 61.4 °F 57.2 °F 30.00 in Calm     86% 0.00 in
04:15 61.4 °F 57.2 °F 30.00 in Calm     86% 0.00 in
04:20 61.4 °F 57.2 °F 30.01 in Calm     86% 0.00 in
04:25 61.6 °F 57.4 °F 30.01 in Calm     86% 0.00 in
04:30 61.6 °F 57.4 °F 30.01 in Calm     86% 0.00 in
04:35 61.4 °F 57.2 °F 30.01 in Calm     86% 0.00 in
04:40 61.3 °F 57.1 °F 30.01 in Calm     86% 0.00 in
04:45 61.4 °F 57.5 °F 30.01 in Calm     87% 0.00 in
04:50 61.4 °F 57.5 °F 30.01 in Calm     87% 0.00 in
04:55 61.3 °F 57.4 °F 30.01 in Calm     87% 0.00 in
05:00 61.3 °F 57.7 °F 30.01 in Calm     88% 0.00 in
05:05 61.3 °F 57.4 °F 30.01 in Calm     87% 0.00 in
05:10 61.0 °F 57.1 °F 30.01 in Calm     87% 0.00 in
05:15 60.9 °F 57.3 °F 30.02 in Calm     88% 0.00 in
05:20 60.8 °F 57.2 °F 30.02 in Calm     88% 0.00 in
05:25 60.7 °F 57.1 °F 30.02 in Calm     88% 0.00 in
05:30 60.8 °F 57.5 °F 30.02 in Calm     89% 0.00 in
05:35 60.6 °F 57.0 °F 30.03 in Calm     88% 0.00 in
05:40 60.6 °F 57.3 °F 30.03 in Calm     89% 0.00 in
05:45 60.5 °F 57.2 °F 30.03 in Calm     89% 0.00 in
05:55 60.4 °F 57.1 °F 30.03 in Calm     89% 0.00 in
06:00 60.3 °F 57.0 °F 30.03 in Calm     89% 0.00 in
06:05 60.3 °F 57.0 °F 30.03 in Calm     89% 0.00 in
06:09 60.3 °F 57.0 °F 30.03 in Calm     89% 0.00 in
06:15 60.3 °F 57.4 °F 30.03 in Calm     90% 0.00 in
06:20 60.4 °F 57.1 °F 30.03 in Calm     89% 0.00 in
06:25 60.3 °F 57.0 °F 30.03 in Calm     89% 0.00 in
06:30 60.4 °F 57.1 °F 30.03 in Calm     89% 0.00 in
06:35 60.7 °F 57.7 °F 30.03 in Calm     90% 0.00 in
06:40 60.8 °F 57.5 °F 30.03 in Calm     89% 0.00 in
06:45 61.1 °F 57.8 °F 30.03 in Calm     89% 0.00 in
06:50 61.4 °F 58.1 °F 30.04 in Calm     89% 0.00 in
06:55 61.7 °F 58.4 °F 30.04 in Calm     89% 0.00 in
07:00 62.0 °F 58.4 °F 30.04 in Calm     88% 0.00 in
07:05 62.3 °F 58.7 °F 30.04 in Calm     88% 0.00 in
07:10 62.9 °F 59.0 °F 30.04 in Calm     87% 0.00 in
07:15 63.5 °F 59.6 °F 30.04 in Calm     87% 0.00 in
07:19 64.2 °F 59.9 °F 30.04 in Calm     86% 0.00 in
07:25 64.7 °F 59.8 °F 30.05 in Calm     84% 0.00 in
07:30 65.1 °F 60.1 °F 30.04 in Calm     84% 0.00 in
07:35 65.5 °F 60.2 °F 30.05 in Calm     83% 0.00 in
07:39 66.0 °F 60.7 °F 30.05 in Calm     83% 0.00 in
07:44 66.5 °F 60.8 °F 30.05 in Calm     82% 0.00 in
07:50 66.5 °F 60.5 °F 30.05 in Calm     81% 0.00 in
07:55 66.5 °F 60.5 °F 30.05 in Calm     81% 0.00 in
08:00 66.5 °F 60.8 °F 30.06 in Calm     82% 0.00 in
08:05 66.5 °F 60.5 °F 30.06 in Calm     81% 0.00 in
08:10 66.5 °F 60.8 °F 30.06 in Calm     82% 0.00 in
08:14 66.7 °F 60.7 °F 30.06 in Calm   4.0 mph 81% 0.00 in
08:19 66.8 °F 60.8 °F 30.06 in Calm   4.0 mph 81% 0.00 in
08:25 66.9 °F 60.9 °F 30.06 in SSW 1.0 mph 2.0 mph 81% 0.00 in
08:29 67.4 °F 61.7 °F 30.06 in Calm   1.0 mph 82% 0.00 in
08:35 68.3 °F 61.9 °F 30.06 in South 1.0 mph 3.0 mph 80% 0.00 in
08:39 68.8 °F 62.0 °F 30.07 in South 3.0 mph 3.0 mph 79% 0.00 in
08:45 68.9 °F 61.4 °F 30.07 in Calm   3.0 mph 77% 0.00 in
08:50 69.0 °F 61.5 °F 30.07 in SW 1.0 mph 4.0 mph 77% 0.00 in
08:55 69.3 °F 62.1 °F 30.07 in SW 1.0 mph 4.0 mph 78% 0.00 in
09:00 69.6 °F 62.1 °F 30.07 in SSW 1.0 mph 4.0 mph 77% 0.00 in
09:05 69.9 °F 62.0 °F 30.07 in SSW 1.0 mph 4.0 mph 76% 0.00 in
09:10 70.4 °F 62.5 °F 30.07 in SW 3.0 mph 4.0 mph 76% 0.00 in
09:15 70.8 °F 62.5 °F 30.07 in SW 1.0 mph 4.0 mph 75% 0.00 in
09:20 71.8 °F 63.1 °F 30.07 in SW 2.0 mph 4.0 mph 74% 0.00 in
09:25 72.2 °F 62.3 °F 30.06 in SSW 2.0 mph 4.0 mph 71% 0.00 in
09:29 72.7 °F 62.8 °F 30.06 in SSW 2.0 mph 4.0 mph 71% 0.00 in
09:34 72.3 °F 62.4 °F 30.06 in SW 2.0 mph 4.0 mph 71% 0.00 in
09:40 72.9 °F 62.1 °F 30.06 in Calm   5.0 mph 69% 0.00 in
09:45 73.2 °F 62.8 °F 30.06 in Calm   4.0 mph 70% 0.00 in
09:49 73.1 °F 62.3 °F 30.06 in SW 1.0 mph 5.0 mph 69% 0.00 in
09:54 73.6 °F 63.6 °F 30.06 in SSW 2.0 mph 5.0 mph 71% 0.00 in
10:00 74.2 °F 63.0 °F 30.06 in SSW 2.0 mph 5.0 mph 68% 0.00 in
10:05 74.8 °F 63.5 °F 30.06 in SSW 1.0 mph 4.0 mph 68% 0.00 in
10:10 74.9 °F 62.8 °F 30.06 in SW 2.0 mph 5.0 mph 66% 0.00 in
10:15 75.1 °F 63.4 °F 30.06 in WSW 1.0 mph 4.0 mph 67% 0.00 in
10:20 76.1 °F 65.2 °F 30.06 in SSW 2.0 mph 4.0 mph 69% 0.00 in
10:25 75.9 °F 62.8 °F 30.07 in SW 2.0 mph 4.0 mph 64% 0.00 in
10:29 76.2 °F 63.6 °F 30.07 in WNW 3.0 mph 5.0 mph 65% 0.00 in
10:35 76.3 °F 63.7 °F 30.07 in SSE 3.0 mph 5.0 mph 65% 0.00 in
10:39 76.5 °F 63.9 °F 30.07 in SSW 1.0 mph 5.0 mph 65% 0.00 in
10:44 76.6 °F 63.5 °F 30.07 in SW 5.0 mph 6.0 mph 64% 0.00 in
10:49 76.8 °F 63.7 °F 30.06 in SW 3.0 mph 6.0 mph 64% 0.00 in
10:55 77.4 °F 65.1 °F 30.07 in WNW 1.0 mph 6.0 mph 66% 0.00 in
11:00 77.3 °F 63.7 °F 30.07 in West 4.0 mph 7.0 mph 63% 0.00 in
11:05 78.2 °F 64.6 °F 30.07 in NW 4.0 mph 6.0 mph 63% 0.00 in
11:10 78.8 °F 64.7 °F 30.07 in WNW 3.0 mph 8.0 mph 62% 0.00 in
11:15 79.0 °F 65.8 °F 30.07 in WSW 3.0 mph 6.0 mph 64% 0.00 in
11:19 79.7 °F 66.0 °F 30.07 in West 2.0 mph 6.0 mph 63% 0.00 in
11:24 80.0 °F 64.9 °F 30.07 in West 2.0 mph 8.0 mph 60% 0.00 in
11:29 79.1 °F 64.0 °F 30.07 in SW 6.0 mph 8.0 mph 60% 0.00 in
11:34 78.5 °F 63.9 °F 30.07 in WNW 3.0 mph 6.0 mph 61% 0.00 in
11:39 79.4 °F 63.8 °F 30.07 in NW 4.0 mph 7.0 mph 59% 0.00 in
11:44 79.9 °F 64.8 °F 30.07 in West 4.0 mph 7.0 mph 60% 0.00 in
11:49 80.0 °F 63.9 °F 30.07 in West 4.0 mph 7.0 mph 58% 0.00 in
11:55 80.6 °F 65.4 °F 30.07 in West 4.0 mph 7.0 mph 60% 0.00 in
12:00 81.0 °F 64.8 °F 30.07 in West 3.0 mph 7.0 mph 58% 0.00 in
12:05 80.8 °F 65.1 °F 30.07 in WNW 1.0 mph 6.0 mph 59% 0.00 in
12:10 80.8 °F 65.6 °F 30.07 in WNW 6.0 mph 8.0 mph 60% 0.00 in
12:14 81.2 °F 64.5 °F 30.07 in WNW 3.0 mph 8.0 mph 57% 0.00 in
12:19 81.1 °F 64.4 °F 30.07 in WNW 3.0 mph 6.0 mph 57% 0.00 in
12:24 81.0 °F 64.8 °F 30.07 in NW 1.0 mph 5.0 mph 58% 0.00 in
12:29 81.0 °F 65.3 °F 30.07 in West 4.0 mph 7.0 mph 59% 0.00 in
12:34 81.7 °F 65.5 °F 30.07 in West 3.0 mph 6.0 mph 58% 0.00 in
12:39 81.5 °F 65.3 °F 30.07 in WSW 5.0 mph 7.0 mph 58% 0.00 in
12:44 81.3 °F 66.1 °F 30.07 in SW 4.0 mph 8.0 mph 60% 0.00 in
12:49 81.9 °F 67.1 °F 30.07 in WSW 4.0 mph 8.0 mph 61% 0.00 in
12:55 82.3 °F 66.5 °F 30.07 in West 4.0 mph 8.0 mph 59% 0.00 in
12:59 81.9 °F 65.7 °F 30.07 in SW 5.0 mph 8.0 mph 58% 0.00 in
13:05 82.2 °F 66.4 °F 30.07 in WSW 9.0 mph 9.0 mph 59% 0.00 in
13:09 81.7 °F 67.4 °F 30.06 in WSW 5.0 mph 10.0 mph 62% 0.00 in
13:14 82.0 °F 66.3 °F 30.06 in SW 5.0 mph 11.0 mph 59% 0.00 in
13:19 81.6 °F 65.4 °F 30.07 in SW 6.0 mph 11.0 mph 58% 0.00 in
13:24 81.7 °F 66.0 °F 30.06 in WSW 3.0 mph 10.0 mph 59% 0.00 in
13:29 82.7 °F 67.4 °F 30.06 in WSW 3.0 mph 8.0 mph 60% 0.00 in
13:35 82.9 °F 66.1 °F 30.06 in WSW 4.0 mph 10.0 mph 57% 0.00 in
13:39 81.8 °F 66.1 °F 30.06 in WSW 5.0 mph 10.0 mph 59% 0.00 in
13:44 82.1 °F 67.3 °F 30.07 in WSW 5.0 mph 9.0 mph 61% 0.00 in
13:49 82.0 °F 66.3 °F 30.07 in WSW 7.0 mph 10.0 mph 59% 0.00 in
13:54 82.0 °F 66.3 °F 30.06 in SW 4.0 mph 9.0 mph 59% 0.00 in
13:59 82.1 °F 65.4 °F 30.07 in WSW 7.0 mph 10.0 mph 57% 0.00 in
14:04 82.0 °F 66.3 °F 30.06 in SW 4.0 mph 10.0 mph 59% 0.00 in
14:09 82.6 °F 67.3 °F 30.06 in SW 5.0 mph 10.0 mph 60% 0.00 in
14:14 82.5 °F 66.2 °F 30.06 in SW 5.0 mph 9.0 mph 58% 0.00 in
14:19 82.6 °F 65.8 °F 30.06 in SW 5.0 mph 9.0 mph 57% 0.00 in
14:24 82.6 °F 66.8 °F 30.06 in SW 6.0 mph 10.0 mph 59% 0.00 in
14:29 82.7 °F 66.4 °F 30.06 in SW 5.0 mph 10.0 mph 58% 0.00 in
14:35 83.0 °F 66.2 °F 30.06 in WSW 4.0 mph 10.0 mph 57% 0.00 in
14:39 82.8 °F 66.5 °F 30.06 in SW 7.0 mph 7.0 mph 58% 0.00 in
14:44 82.9 °F 67.6 °F 30.06 in SW 3.0 mph 8.0 mph 60% 0.00 in
14:49 83.3 °F 67.0 °F 30.06 in West 3.0 mph 7.0 mph 58% 0.00 in
14:54 83.3 °F 68.0 °F 30.06 in WNW 3.0 mph 9.0 mph 60% 0.00 in
14:59 83.6 °F 66.2 °F 30.06 in SW 6.0 mph 6.0 mph 56% 0.00 in
15:04 83.8 °F 65.9 °F 30.06 in SW 7.0 mph 9.0 mph 55% 0.00 in
15:09 84.2 °F 65.2 °F 30.06 in NNW 4.0 mph 7.0 mph 53% 0.00 in
15:14 85.1 °F 63.8 °F 30.06 in NW 3.0 mph 8.0 mph 49% 0.00 in
15:19 85.4 °F 64.1 °F 30.06 in NW 4.0 mph 8.0 mph 49% 0.00 in
15:24 85.4 °F 62.9 °F 30.06 in NW 4.0 mph 9.0 mph 47% 0.00 in
15:29 85.8 °F 62.6 °F 30.06 in NW 3.0 mph 9.0 mph 46% 0.00 in
15:35 85.1 °F 63.2 °F 30.06 in NNW 4.0 mph 8.0 mph 48% 0.00 in
15:40 85.0 °F 61.9 °F 30.06 in North 4.0 mph 8.0 mph 46% 0.00 in
15:44 85.0 °F 63.1 °F 30.06 in North 3.0 mph 10.0 mph 48% 0.00 in
15:49 85.4 °F 64.1 °F 30.06 in NW 2.0 mph 9.0 mph 49% 0.00 in
15:54 85.7 °F 63.8 °F 30.06 in WNW 2.0 mph 8.0 mph 48% 0.00 in
15:59 85.7 °F 62.5 °F 30.06 in NNW 5.0 mph 9.0 mph 46% 0.00 in
16:04 85.5 °F 61.1 °F 30.06 in NW 3.0 mph 10.0 mph 44% 0.00 in
16:09 85.7 °F 62.5 °F 30.05 in WNW 4.0 mph 8.0 mph 46% 0.00 in
16:14 85.7 °F 61.3 °F 30.06 in NW 4.0 mph 9.0 mph 44% 0.00 in
16:19 85.4 °F 62.3 °F 30.05 in NW 4.0 mph 9.0 mph 46% 0.00 in
16:24 85.9 °F 62.7 °F 30.05 in NNW 2.0 mph 8.0 mph 46% 0.00 in
16:30 85.5 °F 61.1 °F 30.05 in North 2.0 mph 8.0 mph 44% 0.00 in
16:34 85.7 °F 61.3 °F 30.05 in NNW 2.0 mph 8.0 mph 44% 0.00 in
16:39 85.7 °F 60.6 °F 30.05 in NNW 3.0 mph 6.0 mph 43% 0.00 in
16:45 84.5 °F 60.2 °F 30.05 in NNW 2.0 mph 9.0 mph 44% 0.00 in
16:49 84.6 °F 60.9 °F 30.05 in NNW 3.0 mph 9.0 mph 45% 0.00 in
16:54 85.2 °F 61.5 °F 30.05 in West 2.0 mph 6.0 mph 45% 0.00 in
16:59 85.3 °F 61.6 °F 30.05 in West 6.0 mph 7.0 mph 45% 0.00 in
17:04 85.8 °F 62.0 °F 30.05 in WSW 4.0 mph 7.0 mph 45% 0.00 in
17:09 85.6 °F 62.4 °F 30.05 in NNW 3.0 mph 7.0 mph 46% 0.00 in
17:14 85.3 °F 60.9 °F 30.05 in NW 3.0 mph 9.0 mph 44% 0.00 in
17:19 84.8 °F 59.8 °F 30.05 in NW 4.0 mph 9.0 mph 43% 0.00 in
17:24 85.0 °F 60.0 °F 30.05 in NW 4.0 mph 8.0 mph 43% 0.00 in
17:29 84.7 °F 61.0 °F 30.05 in NW 4.0 mph 9.0 mph 45% 0.00 in
17:35 84.7 °F 59.1 °F 30.05 in NW 4.0 mph 9.0 mph 42% 0.00 in
17:39 84.8 °F 59.8 °F 30.05 in SW 8.0 mph 9.0 mph 43% 0.00 in
17:45 83.0 °F 65.7 °F 30.05 in WSW 2.0 mph 10.0 mph 56% 0.00 in
17:49 81.9 °F 66.2 °F 30.05 in WSW 5.0 mph 10.0 mph 59% 0.00 in
17:54 81.8 °F 66.1 °F 30.05 in WSW 4.0 mph 9.0 mph 59% 0.00 in
17:59 81.4 °F 66.2 °F 30.05 in West 4.0 mph 10.0 mph 60% 0.00 in
18:04 80.9 °F 67.1 °F 30.05 in West 4.0 mph 7.0 mph 63% 0.00 in
18:09 80.5 °F 66.3 °F 30.05 in WSW 2.0 mph 10.0 mph 62% 0.00 in
18:14 80.2 °F 66.5 °F 30.05 in West 5.0 mph 9.0 mph 63% 0.00 in
18:19 79.8 °F 66.5 °F 30.05 in WSW 4.0 mph 9.0 mph 64% 0.00 in
18:24 79.4 °F 66.6 °F 30.05 in WSW 4.0 mph 9.0 mph 65% 0.00 in
18:29 79.2 °F 66.9 °F 30.05 in SW 4.0 mph 9.0 mph 66% 0.00 in
18:34 78.5 °F 66.6 °F 30.05 in SSW 3.0 mph 8.0 mph 67% 0.00 in
18:40 78.8 °F 67.8 °F 30.05 in WSW 2.0 mph 5.0 mph 69% 0.00 in
18:44 78.8 °F 67.3 °F 30.05 in South 4.0 mph 8.0 mph 68% 0.00 in
18:49 78.4 °F 66.5 °F 30.05 in WSW 4.0 mph 10.0 mph 67% 0.00 in
18:54 78.0 °F 66.6 °F 30.05 in WSW 5.0 mph 10.0 mph 68% 0.00 in
18:59 77.8 °F 66.8 °F 30.05 in WSW 5.0 mph 10.0 mph 69% 0.00 in
19:04 77.7 °F 66.7 °F 30.05 in West 5.0 mph 8.0 mph 69% 0.00 in
19:09 77.6 °F 66.6 °F 30.05 in SW 4.0 mph 8.0 mph 69% 0.00 in
19:14 77.6 °F 66.6 °F 30.06 in SW 4.0 mph 8.0 mph 69% 0.00 in
19:19 77.7 °F 66.7 °F 30.05 in WSW 2.0 mph 7.0 mph 69% 0.00 in
19:24 77.5 °F 66.9 °F 30.06 in West 4.0 mph 8.0 mph 70% 0.00 in
19:29 77.4 °F 66.8 °F 30.06 in West 3.0 mph 8.0 mph 70% 0.00 in
19:34 77.3 °F 67.2 °F 30.06 in WSW 2.0 mph 8.0 mph 71% 0.00 in
19:39 76.9 °F 67.2 °F 30.06 in SSW 3.0 mph 9.0 mph 72% 0.00 in
19:44 76.6 °F 66.9 °F 30.06 in WSW 4.0 mph 7.0 mph 72% 0.00 in
19:49 76.4 °F 66.7 °F 30.06 in WSW 4.0 mph 9.0 mph 72% 0.00 in
19:54 76.3 °F 67.0 °F 30.06 in WSW 3.0 mph 9.0 mph 73% 0.00 in
19:59 76.1 °F 66.8 °F 30.06 in WSW 3.0 mph 7.0 mph 73% 0.00 in
20:04 75.8 °F 66.9 °F 30.06 in SW 3.0 mph 7.0 mph 74% 0.00 in
20:09 75.5 °F 66.6 °F 30.06 in SW 3.0 mph 7.0 mph 74% 0.00 in
20:14 75.2 °F 66.7 °F 30.06 in WSW 3.0 mph 6.0 mph 75% 0.00 in
20:19 74.9 °F 66.4 °F 30.06 in SW 3.0 mph 6.0 mph 75% 0.00 in
20:24 74.7 °F 66.6 °F 30.06 in WSW 2.0 mph 7.0 mph 76% 0.00 in
20:29 74.5 °F 66.4 °F 30.06 in SW 1.0 mph 4.0 mph 76% 0.00 in
20:34 74.3 °F 66.6 °F 30.06 in WSW 2.0 mph 4.0 mph 77% 0.00 in
20:39 74.1 °F 66.4 °F 30.07 in WSW 4.0 mph 5.0 mph 77% 0.00 in
20:44 74.0 °F 66.7 °F 30.07 in WSW 1.0 mph 5.0 mph 78% 0.00 in
20:49 73.9 °F 66.6 °F 30.06 in WSW 3.0 mph 6.0 mph 78% 0.00 in
20:54 73.8 °F 66.5 °F 30.06 in WSW 3.0 mph 6.0 mph 78% 0.00 in
20:59 73.7 °F 66.4 °F 30.07 in WSW 2.0 mph 5.0 mph 78% 0.00 in
21:04 73.7 °F 66.8 °F 30.06 in WSW 2.0 mph 5.0 mph 79% 0.00 in
21:09 73.5 °F 66.6 °F 30.07 in SW 2.0 mph 6.0 mph 79% 0.00 in
21:14 73.3 °F 66.8 °F 30.07 in SW 3.0 mph 5.0 mph 80% 0.00 in
21:19 73.2 °F 67.0 °F 30.07 in SW 2.0 mph 5.0 mph 81% 0.00 in
21:24 73.2 °F 67.0 °F 30.07 in SW 2.0 mph 4.0 mph 81% 0.00 in
21:29 73.0 °F 67.2 °F 30.07 in Calm   4.0 mph 82% 0.00 in
21:34 73.0 °F 67.5 °F 30.07 in SW 2.0 mph 2.0 mph 83% 0.00 in
21:39 72.8 °F 67.3 °F 30.07 in SW 1.0 mph 4.0 mph 83% 0.00 in
21:44 72.8 °F 67.3 °F 30.07 in WSW 3.0 mph 5.0 mph 83% 0.00 in
21:49 72.7 °F 67.6 °F 30.07 in SW 1.0 mph 5.0 mph 84% 0.00 in
21:54 72.7 °F 67.6 °F 30.07 in WSW 1.0 mph 4.0 mph 84% 0.00 in
21:59 72.7 °F 67.6 °F 30.07 in WSW 1.0 mph 5.0 mph 84% 0.00 in
22:04 72.6 °F 67.5 °F 30.07 in WSW 1.0 mph 5.0 mph 84% 0.00 in
22:09 72.5 °F 67.4 °F 30.08 in Calm   3.0 mph 84% 0.00 in
22:14 72.3 °F 67.5 °F 30.08 in Calm   3.0 mph 85% 0.00 in
22:19 72.2 °F 67.4 °F 30.07 in WSW 1.0 mph 2.0 mph 85% 0.00 in
22:24 72.1 °F 67.0 °F 30.08 in Calm   2.0 mph 84% 0.00 in
22:29 72.2 °F 65.7 °F 30.08 in Calm   6.0 mph 80% 0.00 in
22:34 72.5 °F 65.6 °F 30.08 in WSW 1.0 mph 3.0 mph 79% 0.00 in
22:39 72.5 °F 65.6 °F 30.08 in Calm   2.0 mph 79% 0.00 in
22:44 72.3 °F 65.8 °F 30.08 in Calm     80% 0.00 in
22:49 72.1 °F 66.3 °F 30.08 in Calm     82% 0.00 in
22:54 71.9 °F 66.5 °F 30.08 in Calm     83% 0.00 in
22:59 71.5 °F 66.4 °F 30.08 in WSW 2.0 mph 3.0 mph 84% 0.00 in
23:04 71.4 °F 65.6 °F 30.08 in Calm   3.0 mph 82% 0.00 in
23:09 71.3 °F 64.8 °F 30.08 in West 1.0 mph 4.0 mph 80% 0.00 in
23:14 71.4 °F 63.8 °F 30.08 in Calm   4.0 mph 77% 0.00 in
23:19 71.5 °F 62.4 °F 30.08 in Calm     73% 0.00 in
23:24 71.7 °F 61.8 °F 30.08 in Calm     71% 0.00 in
23:29 71.5 °F 61.2 °F 30.08 in Calm     70% 0.00 in
23:34 71.2 °F 61.7 °F 30.09 in Calm     72% 0.00 in
23:39 70.6 °F 61.5 °F 30.09 in WNW 1.0 mph 2.0 mph 73% 0.00 in
23:44 70.4 °F 60.9 °F 30.08 in Calm   1.0 mph 72% 0.00 in
23:49 70.1 °F 60.7 °F 30.09 in Calm   1.0 mph 72% 0.00 in
23:54 69.8 °F 59.6 °F 30.08 in Calm   1.0 mph 70% 0.00 in
23:59 69.7 °F 59.5 °F 30.08 in Calm   1.0 mph 70% 0.00 in
Buffalo, New York, USA
Compliments of Weather Underground - 2.5 mb